Time;durP1;ratioP1;P1;durP2;ratioP2;P2;SDS_P1;SDS_P2;PMS_P1;PMS_P2;Temp;Humidity;BMP_temperature;BMP_pressure;BME280_temperature;BME280_humidity;BME280_pressure;Samples;Min_cycle;Max_cycle;Signal;HPM_P1;HPM_P2
2023/04/10 00:15:16;;;;;;;7.07;3.45;;;;;;;;;;6262455;22;20051;-81
2023/04/10 00:18:04;;;;;;;9.25;4.35;;;;;;;;;;6245428;22;20011;-81
2023/04/10 00:20:33;;;;;;;7.80;4.05;;;;;;;;;;6245775;22;20098;-80
2023/04/10 00:23:04;;;;;;;11.75;5.13;;;;;;;;;;6246149;22;20003;-81
2023/04/10 00:25:58;;;;;;;10.75;5.03;;;;;;;;;;6245171;22;20018;-81
2023/04/10 00:28:42;;;;;;;7.07;4.25;;;;;;;;;;6246962;22;20023;-81
2023/04/10 00:31:12;;;;;;;10.38;5.30;;;;;;;;;;6245907;22;20008;-81
2023/04/10 00:36:59;;;;;;;7.88;3.80;;;;;;;;;;6272942;22;20038;-81
2023/04/10 00:42:28;;;;;;;11.18;4.70;;;;;;;;;;6272713;22;20029;-81
2023/04/10 00:44:57;;;;;;;7.97;4.40;;;;;;;;;;6246308;22;20008;-80
2023/04/10 00:47:24;;;;;;;6.72;3.60;;;;;;;;;;6244721;22;20022;-80
2023/04/10 00:49:59;;;;;;;7.75;3.67;;;;;;;;;;6178303;23;20148;-80
2023/04/10 00:52:27;;;;;;;4.78;2.35;;;;;;;;;;6178732;23;20024;-80
2023/04/10 00:55:01;;;;;;;4.90;2.53;;;;;;;;;;6179138;23;20024;-80
2023/04/10 00:57:32;;;;;;;5.78;2.38;;;;;;;;;;6153685;23;20017;-81
2023/04/10 01:00:30;;;;;;;6.43;2.70;;;;;;;;;;6178850;23;20023;-80
2023/04/10 01:13:17;;;;;;;5.20;2.63;;;;;;;;;;6266851;22;20026;-80
2023/04/10 01:23:06;;;;;;;8.23;2.70;;;;;;;;;;6061440;23;20018;-81
2023/04/10 01:28:41;;;;;;;6.03;3.30;;;;;;;;;;6226941;22;20130;-80
2023/04/10 05:54:11;;;;;;;9.68;4.57;;;;;;;;;;6272383;22;20035;-83
2023/04/10 05:56:40;;;;;;;9.73;4.90;;;;;;;;;;6245158;22;20521;-83
2023/04/10 05:59:16;;;;;;;6.53;3.97;;;;;;;;;;6245716;22;20162;-82
2023/04/10 06:01:47;;;;;;;7.68;4.00;;;;;;;;;;6272747;22;20027;-83
2023/04/10 06:04:55;;;;;;;;;;;;;;;;;;;;;
2023/04/10 11:11:02;;;;;;;1.95;0.90;;;;;;;;;;6240489;22;20097;-81
2023/04/10 18:26:50;;;;;;;8.82;4.22;;;;;;;;;;6237620;22;20070;-80
2023/04/10 18:29:16;;;;;;;7.55;3.28;;;;;;;;;;6244223;22;20443;-81
2023/04/10 18:31:45;;;;;;;7.60;3.30;;;;;;;;;;6271421;22;20000;-81
2023/04/10 18:34:11;;;;;;;7.72;3.50;;;;;;;;;;6242679;22;20012;-82
2023/04/10 18:36:37;;;;;;;6.03;2.10;;;;;;;;;;6272468;22;20007;-81
2023/04/10 18:39:03;;;;;;;4.57;1.70;;;;;;;;;;6272641;22;20046;-81
2023/04/10 18:41:29;;;;;;;4.97;1.80;;;;;;;;;;6244734;22;20023;-81
2023/04/10 18:43:55;;;;;;;6.13;2.35;;;;;;;;;;6272987;22;19999;-81
2023/04/10 18:46:26;;;;;;;4.35;1.60;;;;;;;;;;6244923;22;20732;-82
2023/04/10 18:48:54;;;;;;;10.52;3.20;;;;;;;;;;6271640;22;20653;-82
2023/04/10 18:51:21;;;;;;;4.03;1.58;;;;;;;;;;6272320;22;20441;-82
2023/04/10 18:53:47;;;;;;;2.85;1.42;;;;;;;;;;6244920;22;20049;-81
2023/04/10 18:56:13;;;;;;;2.15;0.70;;;;;;;;;;6271501;22;20125;-82
2023/04/10 19:41:45;;;;;;;;;;;;;;;;;;;;;
2023/04/10 21:00:17;;;;;;;2.25;1.00;;;;;;;;;;6252369;22;20073;-80
2023/04/10 21:02:49;;;;;;;;;;;;;;;;;;6245002;22;20047;-80
2023/04/10 21:55:05;;;;;;;5.88;0.90;;;;;;;;;;6208820;23;20340;-80
2023/04/10 21:57:44;;;;;;;2.70;1.27;;;;;;;;;;6178130;23;20013;-80
2023/04/10 22:00:12;;;;;;;3.88;1.00;;;;;;;;;;6184772;23;20016;-80
2023/04/10 22:03:20;;;;;;;;;;;;;;;;;;;;;
2023/04/10 22:09:16;;;;;;;4.72;0.70;;;;;;;;;;6211640;23;20127;-80
2023/04/10 22:18:28;;;;;;;6.10;1.75;;;;;;;;;;6004039;23;20034;-80
2023/04/10 22:43:44;;;;;;;;;;;;;;;;;;;;;
